createdAt,value
2023-05-23T00:01:30.720Z,95151.13
2023-05-23T00:03:57.087Z,95155.34
2023-05-23T00:06:24.217Z,95151.66
2023-05-23T00:08:50.722Z,95149.06
2023-05-23T00:11:18.723Z,95149.38
2023-05-23T00:13:45.073Z,95156.31
2023-05-23T00:16:11.393Z,95159.22
2023-05-23T00:18:39.494Z,95161.16
2023-05-23T00:21:05.904Z,95161.16
2023-05-23T00:23:33.229Z,95162.09
2023-05-23T00:25:59.634Z,95156.81
2023-05-23T00:28:26.428Z,95155.84
2023-05-23T00:30:52.801Z,95159.53
2023-05-23T00:33:21.286Z,95160.50
2023-05-23T00:35:47.694Z,95156.47
2023-05-23T00:38:14.247Z,95160.81
2023-05-23T00:40:41.216Z,95162.09
2023-05-23T00:43:07.881Z,95159.69
2023-05-23T00:45:34.256Z,95161.47
2023-05-23T00:48:02.403Z,95162.28
2023-05-23T00:50:29.471Z,95156.63
2023-05-23T00:52:57.414Z,95156.81
2023-05-23T00:55:24.139Z,95160.50
2023-05-23T00:57:53.810Z,95163.84
2023-05-23T01:00:20.875Z,95163.03
2023-05-23T01:02:50.649Z,95156.28
2023-05-23T01:05:17.980Z,95156.44
2023-05-23T01:07:44.756Z,95162.06
2023-05-23T01:10:12.025Z,95149.78
2023-05-23T01:12:45.984Z,95156.06
2023-05-23T01:15:16.323Z,95153.34
2023-05-23T01:17:50.046Z,95160.59
2023-05-23T01:20:19.653Z,95167.22
2023-05-23T01:23:13.548Z,95165.88
2023-05-23T01:25:50.123Z,95167.50
2023-05-23T01:28:21.609Z,95165.72
2023-05-23T01:30:51.582Z,95172.31
2023-05-23T01:33:20.117Z,95170.72
2023-05-23T01:35:46.940Z,95159.28
2023-05-23T01:38:16.159Z,95160.69
2023-05-23T01:40:42.579Z,95159.38
2023-05-23T01:43:09.110Z,95169.69
2023-05-23T01:45:36.848Z,95165.00
2023-05-23T01:48:05.644Z,95164.00
2023-05-23T01:50:32.514Z,95160.63
2023-05-23T01:52:59.824Z,95165.59
2023-05-23T01:55:27.074Z,95171.53
2023-05-23T01:57:55.772Z,95167.50
2023-05-23T02:00:22.763Z,95171.22
2023-05-23T02:02:49.865Z,95173.34
2023-05-23T02:05:16.504Z,95171.19
2023-05-23T02:07:42.845Z,95174.91
2023-05-23T02:10:09.898Z,95186.97
2023-05-23T02:12:36.230Z,95185.75
2023-05-23T02:15:02.684Z,95176.41
2023-05-23T02:17:29.972Z,95178.31
2023-05-23T02:19:57.059Z,95182.69
2023-05-23T02:22:24.148Z,95186.69
2023-05-23T02:24:50.661Z,95194.75
2023-05-23T02:27:17.235Z,95202.38
2023-05-23T02:29:46.232Z,95199.78
2023-05-23T02:32:12.572Z,95202.06
2023-05-23T02:34:46.053Z,95200.28
2023-05-23T02:37:13.639Z,95198.84
2023-05-23T02:39:40.041Z,95200.00
2023-05-23T02:42:07.068Z,95200.81
2023-05-23T02:44:33.402Z,95202.59
2023-05-23T02:46:59.734Z,95207.44
2023-05-23T02:49:26.055Z,95215.97
2023-05-23T02:51:52.509Z,95217.28
2023-05-23T02:54:19.527Z,95215.03
2023-05-23T02:56:46.151Z,95223.09
2023-05-23T02:59:12.932Z,95221.97
2023-05-23T03:01:39.344Z,95219.72
2023-05-23T03:04:05.845Z,95218.91
2023-05-23T03:06:33.285Z,95209.25
2023-05-23T03:09:00.633Z,95209.88
2023-05-23T03:11:29.098Z,95216.84
2023-05-23T03:13:55.440Z,95213.44
2023-05-23T03:16:22.253Z,95212.66
2023-05-23T03:18:48.751Z,95230.81
2023-05-23T03:21:15.050Z,95223.56
2023-05-23T03:23:41.364Z,95221.00
2023-05-23T03:26:07.728Z,95220.50
2023-05-23T03:28:34.710Z,95219.56
2023-05-23T03:31:01.239Z,95224.22
2023-05-23T03:33:27.643Z,95219.72
2023-05-23T03:35:54.001Z,95222.13
2023-05-23T03:38:20.541Z,95224.03
2023-05-23T03:40:47.669Z,95222.78
2023-05-23T03:43:14.007Z,95227.59
2023-05-23T03:45:41.376Z,95227.09
2023-05-23T03:48:08.073Z,95236.28
2023-05-23T03:50:34.418Z,95229.69
2023-05-23T03:53:03.399Z,95229.50
2023-05-23T03:55:31.734Z,95234.03
2023-05-23T03:57:58.059Z,95234.03
2023-05-23T04:00:24.367Z,95236.59
2023-05-23T04:02:53.172Z,95237.91
2023-05-23T04:05:19.595Z,95237.88
2023-05-23T04:07:45.953Z,95229.66
2023-05-23T04:10:12.318Z,95229.81
2023-05-23T04:12:40.851Z,95232.25
2023-05-23T04:15:08.579Z,95250.59
2023-05-23T04:17:34.900Z,95235.94
2023-05-23T04:20:01.960Z,95236.41
2023-05-23T04:22:28.279Z,95237.34
2023-05-23T04:24:54.977Z,95242.50
2023-05-23T04:27:21.846Z,95248.13
2023-05-23T04:29:48.422Z,95248.44
2023-05-23T04:32:16.095Z,95245.84
2023-05-23T04:34:43.553Z,95263.56
2023-05-23T04:37:10.980Z,95262.13
2023-05-23T04:39:37.803Z,95268.25
2023-05-23T04:42:06.606Z,95271.47
2023-05-23T04:44:32.947Z,95273.88
2023-05-23T04:47:01.891Z,95275.63
2023-05-23T04:49:28.673Z,95267.41
2023-05-23T04:51:55.013Z,95264.97
2023-05-23T04:54:24.741Z,95267.06
2023-05-23T04:56:51.254Z,95265.28
2023-05-23T04:59:17.604Z,95262.22
2023-05-23T05:01:44.018Z,95257.56
2023-05-23T05:04:12.551Z,95269.63
2023-05-23T05:06:43.808Z,95255.44
2023-05-23T05:09:10.152Z,95271.88
2023-05-23T05:11:37.134Z,95268.28
2023-05-23T05:14:03.492Z,95265.53
2023-05-23T05:16:31.127Z,95261.28
2023-05-23T05:18:57.609Z,95262.88
2023-05-23T05:21:23.992Z,95267.69
2023-05-23T05:23:51.772Z,95266.84
2023-05-23T05:26:18.211Z,95260.50
2023-05-23T05:28:45.234Z,95263.03
2023-05-23T05:31:14.543Z,95248.41
2023-05-23T05:33:41.064Z,95247.56
2023-05-23T05:36:07.667Z,95241.22
2023-05-23T05:38:34.007Z,95240.91
2023-05-23T05:41:00.510Z,95247.13
2023-05-23T05:43:26.834Z,95243.50
2023-05-23T05:45:53.890Z,95244.72
2023-05-23T05:48:20.338Z,95241.88
2023-05-23T05:50:46.763Z,95249.13
2023-05-23T05:53:13.503Z,95246.75
2023-05-23T05:55:39.932Z,95246.06
2023-05-23T05:58:06.331Z,95241.78
2023-05-23T06:00:41.252Z,95243.22
2023-05-23T06:03:12.020Z,95257.94
2023-05-23T06:05:39.027Z,95251.53
2023-05-23T06:08:05.636Z,95260.94
2023-05-23T06:10:32.064Z,95255.69
2023-05-23T06:12:58.835Z,95261.88
2023-05-23T06:15:25.254Z,95260.25
2023-05-23T06:17:51.956Z,95264.25
2023-05-23T06:20:18.919Z,95259.34
2023-05-23T06:22:45.479Z,95258.06
2023-05-23T06:25:11.840Z,95256.03
2023-05-23T06:27:38.297Z,95258.19
2023-05-23T06:30:05.956Z,95254.41
2023-05-23T06:32:32.383Z,95260.16
2023-05-23T06:34:58.774Z,95267.59
2023-05-23T06:37:25.830Z,95259.81
2023-05-23T06:39:52.237Z,95257.28
2023-05-23T06:42:18.619Z,95250.38
2023-05-23T06:44:44.978Z,95257.25
2023-05-23T06:47:11.333Z,95262.72
2023-05-23T06:49:37.651Z,95262.28
2023-05-23T06:52:04.346Z,95261.88
2023-05-23T06:54:32.447Z,95263.47
2023-05-23T06:56:58.891Z,95262.78
2023-05-23T06:59:25.229Z,95271.81
2023-05-23T07:01:51.597Z,95278.22
2023-05-23T07:04:17.968Z,95275.03
2023-05-23T07:06:47.903Z,95280.75
2023-05-23T07:09:14.301Z,95272.91
2023-05-23T07:11:44.375Z,95267.69
2023-05-23T07:14:10.762Z,95269.75
2023-05-23T07:16:42.833Z,95277.66
2023-05-23T07:19:09.325Z,95277.94
2023-05-23T07:21:35.739Z,95267.91
2023-05-23T07:24:02.085Z,95270.59
2023-05-23T07:26:30.417Z,95277.88
2023-05-23T07:28:58.089Z,95278.50
2023-05-23T07:31:24.688Z,95283.91
2023-05-23T07:33:51.171Z,95284.16
2023-05-23T07:36:22.894Z,95283.31
2023-05-23T07:38:49.267Z,95288.91
2023-05-23T07:41:15.605Z,95281.00
2023-05-23T07:43:41.952Z,95276.81
2023-05-23T07:46:09.107Z,95277.16
2023-05-23T07:48:35.517Z,95283.44
2023-05-23T07:51:01.920Z,95285.34
2023-05-23T07:53:28.294Z,95285.19
2023-05-23T07:55:54.678Z,95287.75
2023-05-23T07:58:22.455Z,95287.25
2023-05-23T08:00:51.807Z,95284.84
2023-05-23T08:03:19.888Z,95289.19
2023-05-23T08:05:46.927Z,95285.34
2023-05-23T08:08:13.329Z,95284.94
2023-05-23T08:10:39.930Z,95284.38
2023-05-23T08:13:07.359Z,95288.28
2023-05-23T08:15:33.720Z,95285.09
2023-05-23T08:18:00.232Z,95296.44
2023-05-23T08:20:30.617Z,95294.16
2023-05-23T08:22:58.221Z,95287.84
2023-05-23T08:25:29.543Z,95298.97
2023-05-23T08:27:56.841Z,95302.28
2023-05-23T08:30:24.666Z,95305.97
2023-05-23T08:32:52.377Z,95305.78
2023-05-23T08:35:18.808Z,95318.75
2023-05-23T08:37:45.897Z,95312.19
2023-05-23T08:40:17.340Z,95307.34
2023-05-23T08:42:43.968Z,95307.69
2023-05-23T08:45:10.709Z,95306.09
2023-05-23T08:47:38.287Z,95314.06
2023-05-23T08:50:06.969Z,95328.50
2023-05-23T08:52:34.849Z,95318.31
2023-05-23T08:55:02.050Z,95322.75
2023-05-23T08:57:29.780Z,95313.84
2023-05-23T08:59:57.644Z,95319.13
2023-05-23T09:02:24.622Z,95321.59
2023-05-23T09:04:51.068Z,95320.25
2023-05-23T09:07:19.298Z,95315.72
2023-05-23T09:09:47.603Z,95324.16
2023-05-23T09:12:15.074Z,95320.25
2023-05-23T09:14:43.933Z,95334.31
2023-05-23T09:17:10.298Z,95333.03
2023-05-23T09:19:40.856Z,95332.69
2023-05-23T09:22:07.233Z,95333.38
2023-05-23T09:24:34.500Z,95320.75
2023-05-23T09:27:01.161Z,95325.78
2023-05-23T09:29:28.143Z,95327.53
2023-05-23T09:32:00.024Z,95322.75
2023-05-23T09:34:27.437Z,95325.50
2023-05-23T09:36:55.192Z,95316.44
2023-05-23T09:39:21.575Z,95316.94
2023-05-23T09:41:48.498Z,95314.75
2023-05-23T09:46:41.674Z,95316.97
2023-05-23T09:49:17.731Z,95315.75
2023-05-23T09:51:44.719Z,95318.09
2023-05-23T09:54:11.084Z,95319.38
2023-05-23T09:56:42.886Z,95321.31
2023-05-23T09:59:13.436Z,95319.03
2023-05-23T10:01:41.951Z,95327.25
2023-05-23T10:04:09.526Z,95325.22
2023-05-23T10:06:42.221Z,95331.22
2023-05-23T10:09:14.667Z,95341.16
2023-05-23T10:12:28.650Z,95327.31
2023-05-23T10:14:57.853Z,95322.91
2023-05-23T10:17:32.670Z,95321.59
2023-05-23T10:20:07.654Z,95314.13
2023-05-23T10:22:35.484Z,95314.66
2023-05-23T10:25:02.899Z,95315.06
2023-05-23T10:27:29.707Z,95309.22
2023-05-23T10:29:57.054Z,95311.34
2023-05-23T10:32:24.501Z,95306.00
2023-05-23T10:34:59.138Z,95312.00
2023-05-23T10:37:34.491Z,95322.66
2023-05-23T10:40:07.207Z,95320.34
2023-05-23T10:42:45.745Z,95325.94
2023-05-23T10:45:17.338Z,95322.38
2023-05-23T10:47:43.780Z,95320.66
2023-05-23T10:50:13.543Z,95320.81
2023-05-23T10:52:40.967Z,95326.50
2023-05-23T10:55:16.982Z,95334.25
2023-05-23T10:57:44.278Z,95333.28
2023-05-23T11:00:15.195Z,95330.22
2023-05-23T11:02:53.893Z,95333.69
2023-05-23T11:05:22.828Z,95327.16
2023-05-23T11:08:07.412Z,95309.28
2023-05-23T11:10:55.260Z,95302.88
2023-05-23T11:13:22.532Z,95284.94
2023-05-23T11:15:49.346Z,95286.75
2023-05-23T11:18:24.003Z,95284.16
2023-05-23T11:20:54.992Z,95282.81
2023-05-23T11:23:22.347Z,95279.22
2023-05-23T11:25:50.364Z,95271.84
2023-05-23T11:28:17.061Z,95271.38
2023-05-23T11:30:48.175Z,95271.22
2023-05-23T11:33:15.735Z,95265.19
2023-05-23T11:35:45.823Z,95260.31
2023-05-23T11:38:14.528Z,95264.44
2023-05-23T11:40:42.901Z,95264.81
2023-05-23T11:43:10.783Z,95263.03
2023-05-23T11:45:39.000Z,95253.97
2023-05-23T11:48:06.894Z,95255.72
2023-05-23T11:50:33.713Z,95245.56
2023-05-23T11:53:00.429Z,95248.16
2023-05-23T11:55:27.652Z,95241.97
2023-05-23T11:57:56.000Z,95253.28
2023-05-23T12:00:22.332Z,95247.31
2023-05-23T12:02:48.778Z,95252.03
2023-05-23T12:05:15.290Z,95243.97
2023-05-23T12:07:42.189Z,95249.31
2023-05-23T12:10:10.244Z,95248.88
2023-05-23T12:12:40.693Z,95248.72
2023-05-23T12:15:08.890Z,95257.13
2023-05-23T12:17:36.515Z,95260.72
2023-05-23T12:20:04.044Z,95258.44
2023-05-23T12:22:30.737Z,95260.66
2023-05-23T12:24:57.242Z,95259.19
2023-05-23T12:27:29.209Z,95261.56
2023-05-23T12:30:06.114Z,95265.22
2023-05-23T12:32:32.719Z,95269.28
2023-05-23T12:34:59.182Z,95266.94
2023-05-23T12:37:25.619Z,95262.56
2023-05-23T12:39:52.000Z,95265.03
2023-05-23T12:42:18.377Z,95262.19
2023-05-23T12:44:45.336Z,95261.91
2023-05-23T12:47:12.574Z,95257.38
2023-05-23T12:49:38.970Z,95264.34
2023-05-23T12:52:07.237Z,95257.59
2023-05-23T12:54:36.188Z,95268.47
2023-05-23T12:57:02.600Z,95272.41
2023-05-23T12:59:28.964Z,95276.06
2023-05-23T13:01:55.527Z,95275.72
2023-05-23T13:04:22.668Z,95276.56
2023-05-23T13:06:49.114Z,95266.78
2023-05-23T13:09:15.596Z,95261.16
2023-05-23T13:11:42.040Z,95262.84
2023-05-23T13:14:08.412Z,95266.34
2023-05-23T13:16:36.000Z,95257.44
2023-05-23T13:19:02.399Z,95260.25
2023-05-23T13:21:29.559Z,95251.16
2023-05-23T13:23:55.912Z,95267.66
2023-05-23T13:26:22.387Z,95258.81
2023-05-23T13:28:48.809Z,95252.16
2023-05-23T13:31:15.384Z,95256.19
2023-05-23T13:33:41.804Z,95261.91
2023-05-23T13:36:08.191Z,95241.63
2023-05-23T13:38:35.268Z,95248.38
2023-05-23T13:41:01.752Z,95257.75
2023-05-23T13:43:28.178Z,95252.31
2023-05-23T13:45:54.520Z,95249.63
2023-05-23T13:48:20.880Z,95250.31
2023-05-23T13:50:47.248Z,95248.88
2023-05-23T13:53:16.082Z,95248.66
2023-05-23T13:55:44.461Z,95259.81
2023-05-23T13:58:11.251Z,95269.94
2023-05-23T14:00:37.745Z,95272.59
2023-05-23T14:03:04.304Z,95269.75
2023-05-23T14:05:31.017Z,95280.72
2023-05-23T14:07:57.505Z,95282.75
2023-05-23T14:10:23.885Z,95286.91
2023-05-23T14:12:50.950Z,95290.06
2023-05-23T14:15:17.593Z,95294.38
2023-05-23T14:17:44.020Z,95293.63
2023-05-23T14:20:11.262Z,95295.00
2023-05-23T14:22:39.381Z,95297.97
2023-05-23T14:25:06.351Z,95298.19
2023-05-23T14:27:33.285Z,95293.47
2023-05-23T14:30:00.440Z,95298.97
2023-05-23T14:32:26.901Z,95290.16
2023-05-23T14:34:53.453Z,95283.50
2023-05-23T14:37:19.895Z,95282.72
2023-05-23T14:39:46.266Z,95279.72
2023-05-23T14:42:12.631Z,95281.25
2023-05-23T14:44:38.961Z,95279.00
2023-05-23T14:47:06.243Z,95279.63
2023-05-23T14:49:32.582Z,95292.00
2023-05-23T14:51:59.181Z,95292.19
2023-05-23T14:54:25.594Z,95296.72
2023-05-23T14:56:53.092Z,95306.41
2023-05-23T14:59:21.080Z,95303.34
2023-05-23T15:01:47.561Z,95304.03
2023-05-23T15:04:14.708Z,95302.31
2023-05-23T15:06:42.161Z,95304.66
2023-05-23T15:09:09.827Z,95298.91
2023-05-23T15:11:37.968Z,95309.31
2023-05-23T15:14:04.502Z,95302.66
2023-05-23T15:16:32.250Z,95305.56
2023-05-23T15:18:59.182Z,95313.34
2023-05-23T15:21:26.189Z,95312.66
2023-05-23T15:23:52.596Z,95318.94
2023-05-23T15:26:18.916Z,95329.47
2023-05-23T15:28:45.466Z,95329.59
2023-05-23T15:31:11.878Z,95323.25
2023-05-23T15:33:38.236Z,95320.97
2023-05-23T15:36:04.914Z,95323.06
2023-05-23T15:38:31.962Z,95315.94
2023-05-23T15:40:59.503Z,95328.69
2023-05-23T15:43:26.019Z,95320.66
2023-05-23T15:45:52.784Z,95322.94
2023-05-23T15:48:19.333Z,95328.34
2023-05-23T15:50:45.728Z,95329.50
2023-05-23T15:53:12.120Z,95335.56
2023-05-23T15:55:41.869Z,95335.13
2023-05-23T15:58:08.943Z,95324.59
2023-05-23T16:00:35.300Z,95329.88
2023-05-23T16:03:01.754Z,95341.31
2023-05-23T16:05:29.588Z,95312.19
2023-05-23T16:07:56.426Z,95313.34
2023-05-23T16:10:23.845Z,95313.31
2023-05-23T16:12:51.030Z,95323.06
2023-05-23T16:15:17.435Z,95314.69
2023-05-23T16:17:43.920Z,95319.13
2023-05-23T16:20:11.058Z,95319.22
2023-05-23T16:22:37.412Z,95320.09
2023-05-23T16:25:05.970Z,95325.78
2023-05-23T16:27:32.312Z,95322.75
2023-05-23T16:29:59.346Z,95316.28
2023-05-23T16:32:26.360Z,95313.72
2023-05-23T16:34:54.598Z,95312.78
2023-05-23T16:37:21.194Z,95316.59
2023-05-23T16:39:47.591Z,95319.69
2023-05-23T16:42:14.050Z,95317.03
2023-05-23T16:44:40.404Z,95332.88
2023-05-23T16:47:07.575Z,95321.16
2023-05-23T16:49:33.945Z,95325.50
2023-05-23T16:52:00.283Z,95325.66
2023-05-23T16:54:26.679Z,95327.03
2023-05-23T16:56:53.067Z,95319.44
2023-05-23T16:59:19.475Z,95331.50
2023-05-23T17:01:46.060Z,95326.84
2023-05-23T17:04:13.261Z,95328.34
2023-05-23T17:06:39.644Z,95329.03
2023-05-23T17:09:06.051Z,95331.47
2023-05-23T17:11:32.388Z,95329.66
2023-05-23T17:13:58.854Z,95338.31
2023-05-23T17:16:25.272Z,95334.47
2023-05-23T17:18:52.084Z,95328.97
2023-05-23T17:21:19.248Z,95339.81
2023-05-23T17:23:46.257Z,95340.84
2023-05-23T17:26:12.835Z,95349.78
2023-05-23T17:28:39.198Z,95345.31
2023-05-23T17:31:05.893Z,95350.94
2023-05-23T17:33:32.279Z,95351.34
2023-05-23T17:35:58.626Z,95349.75
2023-05-23T17:38:26.124Z,95349.06
2023-05-23T17:40:52.519Z,95352.41
2023-05-23T17:43:18.961Z,95356.88
2023-05-23T17:45:45.300Z,95356.75
2023-05-23T17:48:11.702Z,95356.63
2023-05-23T17:50:38.173Z,95362.47
2023-05-23T17:53:05.557Z,95370.78
2023-05-23T17:55:32.681Z,95364.69
2023-05-23T17:57:59.032Z,95370.75
2023-05-23T18:00:25.401Z,95365.59
2023-05-23T18:02:51.987Z,95373.38
2023-05-23T18:05:19.982Z,95375.25
2023-05-23T18:07:48.784Z,95376.69
2023-05-23T18:10:15.386Z,95379.97
2023-05-23T18:12:42.465Z,95377.25
2023-05-23T18:15:09.554Z,95387.06
2023-05-23T18:17:36.095Z,95377.53
2023-05-23T18:20:02.690Z,95380.84
2023-05-23T18:22:30.962Z,95390.06
2023-05-23T18:24:57.565Z,95380.38
2023-05-23T18:27:23.946Z,95383.16
2023-05-23T18:29:50.992Z,95389.13
2023-05-23T18:32:17.439Z,95397.97
2023-05-23T18:34:43.836Z,95394.75
2023-05-23T18:37:10.206Z,95397.69
2023-05-23T18:39:36.577Z,95399.81
2023-05-23T18:42:03.049Z,95404.06
2023-05-23T18:44:29.401Z,95395.69
2023-05-23T18:46:56.484Z,95403.09
2023-05-23T18:49:23.036Z,95405.06
2023-05-23T18:51:50.963Z,95409.31
2023-05-23T18:54:17.539Z,95416.25
2023-05-23T18:56:43.947Z,95416.13
2023-05-23T18:59:13.625Z,95413.41
2023-05-23T19:01:40.011Z,95422.47
2023-05-23T19:04:07.753Z,95424.22
2023-05-23T19:06:34.253Z,95423.13
2023-05-23T19:09:00.652Z,95436.53
2023-05-23T19:11:27.328Z,95440.59
2023-05-23T19:13:53.717Z,95448.66
2023-05-23T19:16:20.424Z,95447.38
2023-05-23T19:18:47.786Z,95457.06
2023-05-23T19:21:15.598Z,95462.88
2023-05-23T19:23:41.995Z,95459.47
2023-05-23T19:26:09.472Z,95457.59
2023-05-23T19:28:36.366Z,95463.88
2023-05-23T19:31:02.738Z,95461.13
2023-05-23T19:33:29.098Z,95467.13
2023-05-23T19:35:55.484Z,95470.03
2023-05-23T19:38:22.520Z,95465.19
2023-05-23T19:40:48.883Z,95468.75
2023-05-23T19:43:15.426Z,95461.31
2023-05-23T19:45:41.935Z,95464.41
2023-05-23T19:48:08.374Z,95467.63
2023-05-23T19:50:34.733Z,95464.56
2023-05-23T19:53:01.036Z,95463.63
2023-05-23T19:55:28.053Z,95466.03
2023-05-23T19:57:54.376Z,95471.66
2023-05-23T20:00:20.877Z,95479.41
2023-05-23T20:02:47.330Z,95477.16
2023-05-23T20:05:13.737Z,95481.81
2023-05-23T20:07:40.389Z,95491.47
2023-05-23T20:10:07.668Z,95491.97
2023-05-23T20:12:34.966Z,95486.81
2023-05-23T20:15:01.697Z,95498.91
2023-05-23T20:17:29.156Z,95493.56
2023-05-23T20:19:55.554Z,95491.47
2023-05-23T20:22:21.964Z,95495.50
2023-05-23T20:24:48.321Z,95499.19
2023-05-23T20:27:15.068Z,95503.06
2023-05-23T20:29:42.077Z,95504.31
2023-05-23T20:32:08.470Z,95511.38
2023-05-23T20:34:35.813Z,95513.47
2023-05-23T20:37:04.439Z,95518.47
2023-05-23T20:39:30.845Z,95522.16
2023-05-23T20:41:57.227Z,95523.91
2023-05-23T20:44:23.956Z,95513.13
2023-05-23T20:46:51.037Z,95517.28
2023-05-23T20:49:20.588Z,95528.88
2023-05-23T20:51:47.280Z,95527.56
2023-05-23T20:54:13.712Z,95527.19
2023-05-23T20:56:40.182Z,95528.97
2023-05-23T20:59:07.354Z,95529.78
2023-05-23T21:01:36.409Z,95537.91
2023-05-23T21:04:03.589Z,95538.22
2023-05-23T21:06:30.004Z,95532.56
2023-05-23T21:08:56.355Z,95526.44
2023-05-23T21:11:22.815Z,95533.47
2023-05-23T21:13:49.187Z,95534.81
2023-05-23T21:16:15.886Z,95533.66
2023-05-23T21:18:42.285Z,95541.19
2023-05-23T21:21:09.346Z,95538.41
2023-05-23T21:23:35.738Z,95537.53
2023-05-23T21:26:02.345Z,95547.28
2023-05-23T21:28:28.678Z,95541.44
2023-05-23T21:30:55.816Z,95550.63
2023-05-23T21:33:22.282Z,95543.03
2023-05-23T21:35:48.903Z,95552.06
2023-05-23T21:38:15.970Z,95553.47
2023-05-23T21:40:42.549Z,95559.84
2023-05-23T21:43:10.224Z,95560.25
2023-05-23T21:45:36.582Z,95573.50
2023-05-23T21:48:03.100Z,95568.56
2023-05-23T21:50:29.424Z,95573.66
2023-05-23T21:52:55.803Z,95577.84
2023-05-23T21:55:22.882Z,95580.72
2023-05-23T21:57:49.269Z,95579.72
2023-05-23T22:00:18.309Z,95580.53
2023-05-23T22:02:44.836Z,95581.44
2023-05-23T22:05:12.330Z,95581.56
2023-05-23T22:07:39.022Z,95591.88
2023-05-23T22:10:06.632Z,95584.22
2023-05-23T22:12:33.676Z,95586.53
2023-05-23T22:15:00.293Z,95589.72
2023-05-23T22:17:26.754Z,95582.44
2023-05-23T22:19:55.018Z,95596.16
2023-05-23T22:22:21.344Z,95600.94
2023-05-23T22:24:47.729Z,95613.38
2023-05-23T22:27:14.135Z,95607.19
2023-05-23T22:29:41.147Z,95603.47
2023-05-23T22:32:07.530Z,95594.03
2023-05-23T22:34:33.948Z,95607.47
2023-05-23T22:37:00.936Z,95604.66
2023-05-23T22:39:27.410Z,95606.88
2023-05-23T22:41:53.811Z,95605.47
2023-05-23T22:44:20.285Z,95606.56
2023-05-23T22:46:47.386Z,95607.38
2023-05-23T22:49:16.522Z,95600.44
2023-05-23T22:57:47.481Z,95596.56
2023-05-23T23:00:14.296Z,95598.09
2023-05-23T23:02:40.752Z,95594.25
2023-05-23T23:05:11.076Z,95597.47
2023-05-23T23:07:37.601Z,95602.13
2023-05-23T23:10:04.549Z,95594.56
2023-05-23T23:12:30.870Z,95599.72
2023-05-23T23:14:57.878Z,95594.84
2023-05-23T23:17:24.423Z,95593.13
2023-05-23T23:19:51.053Z,95584.06
2023-05-23T23:22:17.956Z,95581.31
2023-05-23T23:24:44.600Z,95584.06
2023-05-23T23:27:10.962Z,95578.94
2023-05-23T23:29:37.343Z,95583.03
2023-05-23T23:32:05.182Z,95585.25
2023-05-23T23:34:31.553Z,95584.44
2023-05-23T23:36:57.889Z,95581.00
2023-05-23T23:39:24.208Z,95584.84
2023-05-23T23:41:50.611Z,95590.09
2023-05-23T23:44:16.979Z,95592.81
2023-05-23T23:46:43.451Z,95584.63
2023-05-23T23:49:10.460Z,95584.16
2023-05-23T23:51:36.810Z,95587.88
2023-05-23T23:54:03.504Z,95583.13
2023-05-23T23:56:29.886Z,95589.19
2023-05-23T23:58:56.256Z,95588.88
